sensor_id;sensor_type;location;lat;lon;timestamp;pressure;altitude;pressure_sealevel;temperature;humidity
36190;BME280;22232;50.914;13.858;2022-09-01T00:00:03;98350.06;;;14.07;100.00
36190;BME280;22232;50.914;13.858;2022-09-01T00:02:32;98350.88;;;14.08;100.00
36190;BME280;22232;50.914;13.858;2022-09-01T00:05:00;98350.88;;;14.08;100.00
36190;BME280;22232;50.914;13.858;2022-09-01T00:07:31;98350.06;;;14.07;100.00
36190;BME280;22232;50.914;13.858;2022-09-01T00:09:59;98350.88;;;14.08;100.00
36190;BME280;22232;50.914;13.858;2022-09-01T00:12:28;98357.53;;;14.05;100.00
36190;BME280;22232;50.914;13.858;2022-09-01T00:14:56;98356.38;;;14.01;100.00
36190;BME280;22232;50.914;13.858;2022-09-01T00:17:26;98358.47;;;13.99;100.00
36190;BME280;22232;50.914;13.858;2022-09-01T00:19:53;98354.41;;;13.96;100.00
36190;BME280;22232;50.914;13.858;2022-09-01T00:22:21;98351.16;;;13.94;100.00
36190;BME280;22232;50.914;13.858;2022-09-01T00:24:49;98345.22;;;13.92;100.00
36190;BME280;22232;50.914;13.858;2022-09-01T00:27:16;98350.56;;;13.92;100.00
36190;BME280;22232;50.914;13.858;2022-09-01T00:29:45;98358.03;;;13.90;100.00
36190;BME280;22232;50.914;13.858;2022-09-01T00:32:12;98352.69;;;13.90;100.00
36190;BME280;22232;50.914;13.858;2022-09-01T00:34:40;98353.16;;;13.87;100.00
36190;BME280;22232;50.914;13.858;2022-09-01T00:37:08;98343.97;;;13.83;100.00
36190;BME280;22232;50.914;13.858;2022-09-01T00:39:35;98347.72;;;13.82;100.00
36190;BME280;22232;50.914;13.858;2022-09-01T00:42:04;98344.69;;;13.79;100.00
36190;BME280;22232;50.914;13.858;2022-09-01T00:44:32;98339.56;;;13.77;100.00
36190;BME280;22232;50.914;13.858;2022-09-01T00:47:00;98354.03;;;13.76;100.00
36190;BME280;22232;50.914;13.858;2022-09-01T00:49:33;98342.94;;;13.72;100.00
36190;BME280;22232;50.914;13.858;2022-09-01T00:52:25;98347.16;;;13.68;100.00
36190;BME280;22232;50.914;13.858;2022-09-01T00:55:00;98342.84;;;13.67;100.00
36190;BME280;22232;50.914;13.858;2022-09-01T00:57:29;98337.50;;;13.67;100.00
36190;BME280;22232;50.914;13.858;2022-09-01T01:00:02;98337.72;;;13.66;100.00
36190;BME280;22232;50.914;13.858;2022-09-01T01:02:30;98342.41;;;13.59;100.00
36190;BME280;22232;50.914;13.858;2022-09-01T01:04:58;98335.91;;;13.54;100.00
36190;BME280;22232;50.914;13.858;2022-09-01T01:07:27;98337.66;;;13.49;100.00
36190;BME280;22232;50.914;13.858;2022-09-01T01:09:55;98336.38;;;13.51;100.00
36190;BME280;22232;50.914;13.858;2022-09-01T01:12:23;98341.84;;;13.45;100.00
36190;BME280;22232;50.914;13.858;2022-09-01T01:14:54;98337.78;;;13.42;100.00
36190;BME280;22232;50.914;13.858;2022-09-01T01:17:22;98335.81;;;13.38;100.00
36190;BME280;22232;50.914;13.858;2022-09-01T01:19:52;98338.16;;;13.34;100.00
36190;BME280;22232;50.914;13.858;2022-09-01T01:30:43;98338.03;;;13.29;100.00
36190;BME280;22232;50.914;13.858;2022-09-01T01:33:11;98337.81;;;13.30;100.00
36190;BME280;22232;50.914;13.858;2022-09-01T01:35:39;98339.91;;;13.28;100.00
36190;BME280;22232;50.914;13.858;2022-09-01T01:38:08;98344.06;;;13.24;100.00
36190;BME280;22232;50.914;13.858;2022-09-01T01:40:37;98339.09;;;13.28;100.00
36190;BME280;22232;50.914;13.858;2022-09-01T01:43:05;98339.31;;;13.26;100.00
36190;BME280;22232;50.914;13.858;2022-09-01T01:45:34;98336.03;;;13.24;100.00
36190;BME280;22232;50.914;13.858;2022-09-01T01:48:02;98346.41;;;13.21;100.00
36190;BME280;22232;50.914;13.858;2022-09-01T01:50:40;98338.94;;;13.23;100.00
36190;BME280;22232;50.914;13.858;2022-09-01T01:53:11;98334.50;;;13.17;100.00
36190;BME280;22232;50.914;13.858;2022-09-01T01:55:46;98329.16;;;13.17;100.00
36190;BME280;22232;50.914;13.858;2022-09-01T01:58:19;98336.03;;;13.13;100.00
36190;BME280;22232;50.914;13.858;2022-09-01T02:00:49;98328.94;;;13.06;100.00
36190;BME280;22232;50.914;13.858;2022-09-01T02:03:19;98331.63;;;13.06;100.00
36190;BME280;22232;50.914;13.858;2022-09-01T02:05:52;98335.78;;;13.02;100.00
36190;BME280;22232;50.914;13.858;2022-09-01T02:08:21;98336.38;;;13.04;100.00
36190;BME280;22232;50.914;13.858;2022-09-01T02:10:54;98335.56;;;13.04;100.00
36190;BME280;22232;50.914;13.858;2022-09-01T02:13:23;98338.84;;;13.06;100.00
36190;BME280;22232;50.914;13.858;2022-09-01T02:16:03;98340.59;;;13.00;100.00
36190;BME280;22232;50.914;13.858;2022-09-01T02:18:36;98338.94;;;12.99;100.00
36190;BME280;22232;50.914;13.858;2022-09-01T02:21:06;98332.78;;;12.99;100.00
36190;BME280;22232;50.914;13.858;2022-09-01T02:23:47;98338.13;;;12.99;100.00
36190;BME280;22232;50.914;13.858;2022-09-01T02:26:16;98328.81;;;13.01;100.00
36190;BME280;22232;50.914;13.858;2022-09-01T02:28:48;98330.22;;;13.04;100.00
36190;BME280;22232;50.914;13.858;2022-09-01T02:31:25;98338.25;;;13.04;100.00
36190;BME280;22232;50.914;13.858;2022-09-01T02:33:57;98332.66;;;13.05;100.00
36190;BME280;22232;50.914;13.858;2022-09-01T02:36:26;98336.38;;;13.04;100.00
36190;BME280;22232;50.914;13.858;2022-09-01T02:38:54;98327.28;;;13.05;100.00
36190;BME280;22232;50.914;13.858;2022-09-01T02:41:24;98321.94;;;13.05;100.00
36190;BME280;22232;50.914;13.858;2022-09-01T02:43:58;98328.69;;;13.08;100.00
36190;BME280;22232;50.914;13.858;2022-09-01T02:46:29;98328.69;;;13.08;100.00
36190;BME280;22232;50.914;13.858;2022-09-01T02:48:57;98324.75;;;13.11;100.00
36190;BME280;22232;50.914;13.858;2022-09-01T02:51:27;98323.59;;;13.06;100.00
36190;BME280;22232;50.914;13.858;2022-09-01T02:53:54;98320.44;;;13.09;100.00
36190;BME280;22232;50.914;13.858;2022-09-01T02:56:23;98315.31;;;13.08;100.00
36190;BME280;22232;50.914;13.858;2022-09-01T02:58:53;98316.47;;;13.12;100.00
36190;BME280;22232;50.914;13.858;2022-09-01T03:01:27;98313.00;;;13.12;100.00
36190;BME280;22232;50.914;13.858;2022-09-01T03:04:02;98309.72;;;13.09;100.00
36190;BME280;22232;50.914;13.858;2022-09-01T03:06:32;98310.53;;;13.10;100.00
36190;BME280;22232;50.914;13.858;2022-09-01T03:09:03;98309.72;;;13.09;100.00
36190;BME280;22232;50.914;13.858;2022-09-01T03:11:34;98310.78;;;13.08;100.00
36190;BME280;22232;50.914;13.858;2022-09-01T03:14:03;98307.06;;;13.09;100.00
36190;BME280;22232;50.914;13.858;2022-09-01T03:16:31;98304.59;;;13.08;100.00
36190;BME280;22232;50.914;13.858;2022-09-01T03:19:00;98305.66;;;13.07;100.00
36190;BME280;22232;50.914;13.858;2022-09-01T03:21:30;98308.81;;;13.04;100.00
36190;BME280;22232;50.914;13.858;2022-09-01T03:23:58;98313.00;;;13.00;100.00
36190;BME280;22232;50.914;13.858;2022-09-01T03:26:30;98313.09;;;12.93;100.00
36190;BME280;22232;50.914;13.858;2022-09-01T03:28:57;98309.41;;;12.94;100.00
36190;BME280;22232;50.914;13.858;2022-09-01T03:31:25;98305.31;;;12.92;100.00
36190;BME280;22232;50.914;13.858;2022-09-01T03:33:59;98302.97;;;12.95;100.00
36190;BME280;22232;50.914;13.858;2022-09-01T03:36:30;98308.59;;;12.94;100.00
36190;BME280;22232;50.914;13.858;2022-09-01T03:39:00;98301.81;;;12.91;100.00
36190;BME280;22232;50.914;13.858;2022-09-01T03:41:30;98307.41;;;12.90;100.00
36190;BME280;22232;50.914;13.858;2022-09-01T03:43:58;98309.50;;;12.88;100.00
36190;BME280;22232;50.914;13.858;2022-09-01T03:46:29;98309.59;;;12.93;100.00
36190;BME280;22232;50.914;13.858;2022-09-01T03:49:04;98309.13;;;12.84;100.00
36190;BME280;22232;50.914;13.858;2022-09-01T03:51:36;98305.91;;;12.82;100.00
36190;BME280;22232;50.914;13.858;2022-09-01T03:54:07;98309.03;;;12.79;100.00
36190;BME280;22232;50.914;13.858;2022-09-01T03:56:35;98310.91;;;12.78;100.00
36190;BME280;22232;50.914;13.858;2022-09-01T03:59:14;98310.44;;;12.81;100.00
36190;BME280;22232;50.914;13.858;2022-09-01T04:01:47;98320.91;;;12.83;100.00
36190;BME280;22232;50.914;13.858;2022-09-01T04:04:16;98318.22;;;12.83;100.00
36190;BME280;22232;50.914;13.858;2022-09-01T04:06:44;98316.94;;;12.85;100.00
36190;BME280;22232;50.914;13.858;2022-09-01T04:09:14;98321.50;;;12.85;100.00
36190;BME280;22232;50.914;13.858;2022-09-01T04:11:43;98320.69;;;12.84;100.00
36190;BME280;22232;50.914;13.858;2022-09-01T04:14:14;98318.56;;;12.86;100.00
36190;BME280;22232;50.914;13.858;2022-09-01T04:16:44;98315.44;;;12.90;100.00
36190;BME280;22232;50.914;13.858;2022-09-01T04:19:35;98311.47;;;12.92;100.00
36190;BME280;22232;50.914;13.858;2022-09-01T04:22:04;98316.38;;;12.95;100.00
36190;BME280;22232;50.914;13.858;2022-09-01T04:24:38;98322.88;;;12.99;100.00
36190;BME280;22232;50.914;13.858;2022-09-01T04:27:14;98322.88;;;12.99;100.00
36190;BME280;22232;50.914;13.858;2022-09-01T04:29:45;98322.88;;;12.99;100.00
36190;BME280;22232;50.914;13.858;2022-09-01T04:32:13;98320.56;;;13.15;100.00
36190;BME280;22232;50.914;13.858;2022-09-01T04:34:47;98313.72;;;13.59;100.00
36190;BME280;22232;50.914;13.858;2022-09-01T04:37:18;98320.44;;;14.02;100.00
36190;BME280;22232;50.914;13.858;2022-09-01T04:39:56;98310.91;;;14.52;100.00
36190;BME280;22232;50.914;13.858;2022-09-01T04:42:27;98312.25;;;14.88;100.00
36190;BME280;22232;50.914;13.858;2022-09-01T04:44:58;98305.84;;;14.89;100.00
36190;BME280;22232;50.914;13.858;2022-09-01T04:47:40;98311.53;;;14.76;100.00
36190;BME280;22232;50.914;13.858;2022-09-01T04:50:14;98317.28;;;14.51;100.00
36190;BME280;22232;50.914;13.858;2022-09-01T04:53:04;98324.41;;;14.28;100.00
36190;BME280;22232;50.914;13.858;2022-09-01T04:55:45;98320.31;;;14.09;100.00
36190;BME280;22232;50.914;13.858;2022-09-01T04:58:19;98321.81;;;13.88;100.00
36190;BME280;22232;50.914;13.858;2022-09-01T05:00:49;98324.63;;;13.81;100.00
36190;BME280;22232;50.914;13.858;2022-09-01T05:03:19;98325.50;;;13.70;100.00
36190;BME280;22232;50.914;13.858;2022-09-01T05:06:16;98327.25;;;13.64;100.00
36190;BME280;22232;50.914;13.858;2022-09-01T05:08:57;98330.41;;;13.61;100.00
36190;BME280;22232;50.914;13.858;2022-09-01T05:11:48;98335.47;;;13.74;100.00
36190;BME280;22232;50.914;13.858;2022-09-01T05:14:25;98331.97;;;13.86;100.00
36190;BME280;22232;50.914;13.858;2022-09-01T05:16:57;98336.47;;;13.97;100.00
36190;BME280;22232;50.914;13.858;2022-09-01T05:19:27;98335.69;;;14.13;100.00
36190;BME280;22232;50.914;13.858;2022-09-01T05:21:59;98331.41;;;14.29;100.00
36190;BME280;22232;50.914;13.858;2022-09-01T05:24:28;98326.28;;;14.44;100.00
36190;BME280;22232;50.914;13.858;2022-09-01T05:26:59;98324.66;;;14.55;100.00
36190;BME280;22232;50.914;13.858;2022-09-01T05:29:27;98323.72;;;14.66;100.00
36190;BME280;22232;50.914;13.858;2022-09-01T05:31:57;98329.78;;;14.74;100.00
36190;BME280;22232;50.914;13.858;2022-09-01T05:34:25;98328.22;;;14.78;100.00
36190;BME280;22232;50.914;13.858;2022-09-01T05:36:56;98329.69;;;14.85;100.00
36190;BME280;22232;50.914;13.858;2022-09-01T05:39:26;98338.13;;;14.94;100.00
36190;BME280;22232;50.914;13.858;2022-09-01T05:41:54;98336.97;;;15.07;100.00
36190;BME280;22232;50.914;13.858;2022-09-01T05:44:22;98336.63;;;15.20;100.00
36190;BME280;22232;50.914;13.858;2022-09-01T05:46:51;98330.25;;;15.26;100.00
36190;BME280;22232;50.914;13.858;2022-09-01T05:49:20;98323.28;;;15.91;100.00
36190;BME280;22232;50.914;13.858;2022-09-01T05:51:50;98318.59;;;17.00;100.00
36190;BME280;22232;50.914;13.858;2022-09-01T05:54:27;98320.38;;;16.84;100.00
36190;BME280;22232;50.914;13.858;2022-09-01T05:56:56;98318.00;;;16.56;100.00
36190;BME280;22232;50.914;13.858;2022-09-01T05:59:45;98327.56;;;16.41;100.00
36190;BME280;22232;50.914;13.858;2022-09-01T06:02:24;98330.47;;;16.35;100.00
36190;BME280;22232;50.914;13.858;2022-09-01T06:04:55;98324.88;;;16.41;100.00
36190;BME280;22232;50.914;13.858;2022-09-01T06:07:29;98321.06;;;16.69;100.00
36190;BME280;22232;50.914;13.858;2022-09-01T06:10:00;98325.63;;;16.69;100.00
36190;BME280;22232;50.914;13.858;2022-09-01T06:12:28;98324.38;;;16.77;100.00
36190;BME280;22232;50.914;13.858;2022-09-01T06:14:56;98330.72;;;16.65;100.00
36190;BME280;22232;50.914;13.858;2022-09-01T06:17:26;98331.41;;;16.83;100.00
36190;BME280;22232;50.914;13.858;2022-09-01T06:20:01;98331.66;;;17.13;100.00
36190;BME280;22232;50.914;13.858;2022-09-01T06:22:40;98338.22;;;17.80;100.00
36190;BME280;22232;50.914;13.858;2022-09-01T06:25:08;98328.38;;;18.47;100.00
36190;BME280;22232;50.914;13.858;2022-09-01T06:27:38;98327.78;;;19.27;100.00
36190;BME280;22232;50.914;13.858;2022-09-01T06:30:13;98325.81;;;19.48;100.00
36190;BME280;22232;50.914;13.858;2022-09-01T06:33:11;98320.41;;;20.08;100.00
36190;BME280;22232;50.914;13.858;2022-09-01T06:35:46;98321.50;;;20.07;100.00
36190;BME280;22232;50.914;13.858;2022-09-01T06:38:17;98322.53;;;19.66;100.00
36190;BME280;22232;50.914;13.858;2022-09-01T06:40:47;98329.16;;;19.09;100.00
36190;BME280;22232;50.914;13.858;2022-09-01T06:43:21;98337.22;;;18.12;100.00
36190;BME280;22232;50.914;13.858;2022-09-01T06:45:50;98340.28;;;17.73;100.00
36190;BME280;22232;50.914;13.858;2022-09-01T06:48:26;98338.81;;;17.45;100.00
36190;BME280;22232;50.914;13.858;2022-09-01T06:51:01;98335.00;;;17.36;100.00
36190;BME280;22232;50.914;13.858;2022-09-01T06:53:53;98340.63;;;17.29;100.00
36190;BME280;22232;50.914;13.858;2022-09-01T06:56:31;98339.16;;;17.11;100.00
36190;BME280;22232;50.914;13.858;2022-09-01T06:59:18;98347.91;;;16.91;100.00
36190;BME280;22232;50.914;13.858;2022-09-01T07:01:48;98346.78;;;16.82;100.00
36190;BME280;22232;50.914;13.858;2022-09-01T07:04:29;98346.38;;;16.68;100.00
36190;BME280;22232;50.914;13.858;2022-09-01T07:07:02;98353.81;;;17.26;100.00
36190;BME280;22232;50.914;13.858;2022-09-01T07:10:00;98361.81;;;17.15;100.00
36190;BME280;22232;50.914;13.858;2022-09-01T07:12:55;98357.63;;;17.30;100.00
36190;BME280;22232;50.914;13.858;2022-09-01T07:15:41;98360.09;;;17.41;100.00
36190;BME280;22232;50.914;13.858;2022-09-01T07:18:36;98364.69;;;17.46;100.00
36190;BME280;22232;50.914;13.858;2022-09-01T07:21:05;98362.00;;;16.99;100.00
36190;BME280;22232;50.914;13.858;2022-09-01T07:23:54;98349.09;;;16.73;100.00
36190;BME280;22232;50.914;13.858;2022-09-01T07:26:59;98358.28;;;16.45;100.00
36190;BME280;22232;50.914;13.858;2022-09-01T07:29:34;98357.56;;;16.55;100.00
36190;BME280;22232;50.914;13.858;2022-09-01T07:32:02;98355.31;;;16.74;100.00
36190;BME280;22232;50.914;13.858;2022-09-01T07:34:51;98355.00;;;17.03;100.00
36190;BME280;22232;50.914;13.858;2022-09-01T07:37:21;98353.72;;;17.58;100.00
36190;BME280;22232;50.914;13.858;2022-09-01T07:40:12;98354.66;;;17.79;100.00
36190;BME280;22232;50.914;13.858;2022-09-01T07:43:26;98360.69;;;18.11;100.00
36190;BME280;22232;50.914;13.858;2022-09-01T07:46:19;98364.16;;;17.97;100.00
36190;BME280;22232;50.914;13.858;2022-09-01T07:49:07;98358.03;;;17.59;100.00
36190;BME280;22232;50.914;13.858;2022-09-01T07:51:55;98358.81;;;17.54;100.00
36190;BME280;22232;50.914;13.858;2022-09-01T07:54:26;98365.66;;;17.72;100.00
36190;BME280;22232;50.914;13.858;2022-09-01T07:56:56;98361.25;;;17.51;100.00
36190;BME280;22232;50.914;13.858;2022-09-01T07:59:24;98372.09;;;17.66;100.00
36190;BME280;22232;50.914;13.858;2022-09-01T08:02:01;98373.66;;;17.09;100.00
36190;BME280;22232;50.914;13.858;2022-09-01T08:04:31;98375.34;;;16.83;100.00
36190;BME280;22232;50.914;13.858;2022-09-01T08:07:01;98367.06;;;16.95;100.00
36190;BME280;22232;50.914;13.858;2022-09-01T08:09:29;98377.47;;;16.54;100.00
36190;BME280;22232;50.914;13.858;2022-09-01T08:12:10;98378.28;;;16.55;100.00
36190;BME280;22232;50.914;13.858;2022-09-01T08:14:50;98378.19;;;16.71;100.00
36190;BME280;22232;50.914;13.858;2022-09-01T08:17:40;98376.09;;;16.51;100.00
36190;BME280;22232;50.914;13.858;2022-09-01T08:20:26;98372.84;;;17.09;100.00
36190;BME280;22232;50.914;13.858;2022-09-01T08:23:08;98382.53;;;17.47;100.00
36190;BME280;22232;50.914;13.858;2022-09-01T08:25:38;98377.81;;;17.75;100.00
36190;BME280;22232;50.914;13.858;2022-09-01T08:28:07;98377.22;;;18.36;100.00
36190;BME280;22232;50.914;13.858;2022-09-01T08:30:40;98382.91;;;18.54;100.00
36190;BME280;22232;50.914;13.858;2022-09-01T08:33:21;98385.28;;;18.20;100.00
36190;BME280;22232;50.914;13.858;2022-09-01T08:35:49;98386.13;;;18.46;100.00
36190;BME280;22232;50.914;13.858;2022-09-01T08:38:18;98381.09;;;18.75;100.00
36190;BME280;22232;50.914;13.858;2022-09-01T08:40:52;98382.38;;;18.68;100.00
36190;BME280;22232;50.914;13.858;2022-09-01T08:43:51;98382.78;;;17.98;100.00
36190;BME280;22232;50.914;13.858;2022-09-01T08:46:28;98390.56;;;17.84;100.00
36190;BME280;22232;50.914;13.858;2022-09-01T08:49:00;98392.00;;;18.13;100.00
36190;BME280;22232;50.914;13.858;2022-09-01T08:52:20;98384.22;;;18.26;100.00
36190;BME280;22232;50.914;13.858;2022-09-01T08:54:58;98383.72;;;18.45;100.00
36190;BME280;22232;50.914;13.858;2022-09-01T09:00:19;98390.28;;;18.85;100.00
36190;BME280;22232;50.914;13.858;2022-09-01T09:03:00;98395.22;;;18.09;100.00
36190;BME280;22232;50.914;13.858;2022-09-01T09:06:10;98397.47;;;18.33;100.00
36190;BME280;22232;50.914;13.858;2022-09-01T09:08:52;98392.34;;;18.37;100.00
36190;BME280;22232;50.914;13.858;2022-09-01T09:11:57;98392.09;;;18.48;100.00
36190;BME280;22232;50.914;13.858;2022-09-01T09:14:54;98398.59;;;18.68;100.00
36190;BME280;22232;50.914;13.858;2022-09-01T09:17:31;98398.88;;;18.61;100.00
36190;BME280;22232;50.914;13.858;2022-09-01T09:20:01;98400.16;;;18.28;100.00
36190;BME280;22232;50.914;13.858;2022-09-01T09:22:30;98390.75;;;18.51;100.00
36190;BME280;22232;50.914;13.858;2022-09-01T09:25:07;98385.91;;;19.30;100.00
36190;BME280;22232;50.914;13.858;2022-09-01T09:27:38;98383.50;;;19.13;100.00
36190;BME280;22232;50.914;13.858;2022-09-01T09:30:07;98393.25;;;18.88;100.00
36190;BME280;22232;50.914;13.858;2022-09-01T09:32:48;98396.97;;;18.56;100.00
36190;BME280;22232;50.914;13.858;2022-09-01T09:35:41;98385.41;;;18.92;100.00
36190;BME280;22232;50.914;13.858;2022-09-01T09:43:55;98385.09;;;19.34;100.00
36190;BME280;22232;50.914;13.858;2022-09-01T09:54:33;98375.13;;;19.14;100.00
36190;BME280;22232;50.914;13.858;2022-09-01T09:59:41;98389.19;;;19.01;100.00
36190;BME280;22232;50.914;13.858;2022-09-01T10:02:43;98380.81;;;19.02;100.00
36190;BME280;22232;50.914;13.858;2022-09-01T10:08:54;98389.38;;;20.26;85.47
36190;BME280;22232;50.914;13.858;2022-09-01T10:11:29;98386.06;;;20.39;87.02
36190;BME280;22232;50.914;13.858;2022-09-01T10:14:05;98386.91;;;20.29;96.36
36190;BME280;22232;50.914;13.858;2022-09-01T10:16:36;98386.63;;;20.75;80.00
36190;BME280;22232;50.914;13.858;2022-09-01T10:19:06;98375.41;;;20.92;76.14
36190;BME280;22232;50.914;13.858;2022-09-01T10:21:41;98373.91;;;20.76;81.57
36190;BME280;22232;50.914;13.858;2022-09-01T10:27:03;98375.16;;;20.54;75.38
36190;BME280;22232;50.914;13.858;2022-09-01T10:29:42;98369.66;;;20.99;76.56
36190;BME280;22232;50.914;13.858;2022-09-01T10:32:21;98373.72;;;20.96;84.01
36190;BME280;22232;50.914;13.858;2022-09-01T10:35:16;98372.78;;;20.82;80.22
36190;BME280;22232;50.914;13.858;2022-09-01T10:37:46;98376.53;;;20.52;85.32
36190;BME280;22232;50.914;13.858;2022-09-01T10:43:24;98376.47;;;20.57;89.17
36190;BME280;22232;50.914;13.858;2022-09-01T10:45:53;98382.50;;;20.44;90.75
36190;BME280;22232;50.914;13.858;2022-09-01T10:48:32;98373.09;;;20.31;83.62
36190;BME280;22232;50.914;13.858;2022-09-01T10:53:52;98367.75;;;20.65;84.00
36190;BME280;22232;50.914;13.858;2022-09-01T10:59:25;98369.31;;;21.05;82.74
36190;BME280;22232;50.914;13.858;2022-09-01T11:07:34;98366.78;;;20.46;83.08
36190;BME280;22232;50.914;13.858;2022-09-01T11:10:32;98368.00;;;20.24;66.89
36190;BME280;22232;50.914;13.858;2022-09-01T11:13:27;98358.53;;;20.66;64.10
36190;BME280;22232;50.914;13.858;2022-09-01T11:22:15;98364.09;;;20.40;72.32
36190;BME280;22232;50.914;13.858;2022-09-01T11:24:48;98363.38;;;20.25;72.83
36190;BME280;22232;50.914;13.858;2022-09-01T11:33:26;98354.19;;;20.65;69.96
36190;BME280;22232;50.914;13.858;2022-09-01T11:36:01;98349.31;;;20.17;70.60
36190;BME280;22232;50.914;13.858;2022-09-01T11:38:37;98357.78;;;20.11;74.44
36190;BME280;22232;50.914;13.858;2022-09-01T11:41:22;98356.56;;;19.78;82.03
36190;BME280;22232;50.914;13.858;2022-09-01T11:43:53;98357.19;;;19.49;84.04
36190;BME280;22232;50.914;13.858;2022-09-01T11:46:31;98354.78;;;19.32;78.30
36190;BME280;22232;50.914;13.858;2022-09-01T11:49:06;98347.78;;;19.11;78.77
36190;BME280;22232;50.914;13.858;2022-09-01T11:51:44;98357.84;;;19.05;80.37
36190;BME280;22232;50.914;13.858;2022-09-01T11:54:13;98349.16;;;18.98;83.67
36190;BME280;22232;50.914;13.858;2022-09-01T11:56:41;98349.16;;;18.98;91.31
36190;BME280;22232;50.914;13.858;2022-09-01T11:59:09;98353.78;;;19.02;90.70
36190;BME280;22232;50.914;13.858;2022-09-01T12:01:38;98348.59;;;19.21;88.09
36190;BME280;22232;50.914;13.858;2022-09-01T12:04:30;98356.41;;;19.38;79.68
36190;BME280;22232;50.914;13.858;2022-09-01T12:07:08;98355.03;;;19.41;81.66
36190;BME280;22232;50.914;13.858;2022-09-01T12:09:41;98348.59;;;19.27;82.40
36190;BME280;22232;50.914;13.858;2022-09-01T12:12:31;98357.25;;;19.18;78.16
36190;BME280;22232;50.914;13.858;2022-09-01T12:15:29;98353.22;;;19.06;77.07
36190;BME280;22232;50.914;13.858;2022-09-01T12:18:17;98351.59;;;19.05;75.72
36190;BME280;22232;50.914;13.858;2022-09-01T12:20:50;98342.69;;;19.04;78.78
36190;BME280;22232;50.914;13.858;2022-09-01T12:23:24;98348.88;;;19.25;81.80
36190;BME280;22232;50.914;13.858;2022-09-01T12:25:58;98351.34;;;19.11;81.47
36190;BME280;22232;50.914;13.858;2022-09-01T12:28:29;98349.44;;;18.91;77.77
36190;BME280;22232;50.914;13.858;2022-09-01T12:30:59;98345.13;;;18.90;82.04
36190;BME280;22232;50.914;13.858;2022-09-01T12:33:28;98349.44;;;18.91;78.70
36190;BME280;22232;50.914;13.858;2022-09-01T12:36:28;98342.16;;;18.97;77.20
36190;BME280;22232;50.914;13.858;2022-09-01T12:41:46;98341.84;;;19.19;84.07
36190;BME280;22232;50.914;13.858;2022-09-01T12:47:05;98336.19;;;18.90;83.51
36190;BME280;22232;50.914;13.858;2022-09-01T12:49:40;98347.81;;;18.70;84.12
36190;BME280;22232;50.914;13.858;2022-09-01T12:52:21;98347.00;;;18.69;80.42
36190;BME280;22232;50.914;13.858;2022-09-01T12:55:16;98339.47;;;19.02;77.27
36190;BME280;22232;50.914;13.858;2022-09-01T12:58:06;98347.00;;;18.90;74.04
36190;BME280;22232;50.914;13.858;2022-09-01T13:00:55;98341.38;;;18.81;77.34
36190;BME280;22232;50.914;13.858;2022-09-01T13:03:25;98330.53;;;18.91;73.62
36190;BME280;22232;50.914;13.858;2022-09-01T13:05:58;98335.66;;;18.93;81.05
36190;BME280;22232;50.914;13.858;2022-09-01T13:08:31;98333.78;;;18.83;78.67
36190;BME280;22232;50.914;13.858;2022-09-01T13:11:08;98320.25;;;18.98;85.97
36190;BME280;22232;50.914;13.858;2022-09-01T13:13:37;98323.22;;;18.97;83.81
36190;BME280;22232;50.914;13.858;2022-09-01T13:16:05;98321.88;;;18.99;78.56
36190;BME280;22232;50.914;13.858;2022-09-01T13:18:42;98318.34;;;19.09;80.64
36190;BME280;22232;50.914;13.858;2022-09-01T13:21:30;98307.53;;;19.14;70.89
36190;BME280;22232;50.914;13.858;2022-09-01T13:24:00;98313.47;;;19.11;70.48
36190;BME280;22232;50.914;13.858;2022-09-01T13:26:28;98306.94;;;19.22;68.20
36190;BME280;22232;50.914;13.858;2022-09-01T13:28:58;98310.75;;;19.27;70.81
36190;BME280;22232;50.914;13.858;2022-09-01T13:31:26;98311.50;;;19.42;64.38
36190;BME280;22232;50.914;13.858;2022-09-01T13:33:58;98311.56;;;19.92;63.96
36190;BME280;22232;50.914;13.858;2022-09-01T13:36:45;98307.69;;;20.08;60.26
36190;BME280;22232;50.914;13.858;2022-09-01T13:39:19;98317.00;;;19.92;57.99
36190;BME280;22232;50.914;13.858;2022-09-01T13:41:47;98308.94;;;19.82;52.70
36190;BME280;22232;50.914;13.858;2022-09-01T13:44:16;98309.06;;;20.06;53.04
36190;BME280;22232;50.914;13.858;2022-09-01T13:46:45;98313.88;;;20.14;52.74
36190;BME280;22232;50.914;13.858;2022-09-01T13:49:33;98300.84;;;20.21;51.25
36190;BME280;22232;50.914;13.858;2022-09-01T13:52:20;98309.22;;;20.25;53.94
36190;BME280;22232;50.914;13.858;2022-09-01T13:54:48;98302.31;;;20.43;53.13
36190;BME280;22232;50.914;13.858;2022-09-01T13:57:16;98306.50;;;20.25;55.54
36190;BME280;22232;50.914;13.858;2022-09-01T13:59:44;98297.88;;;20.57;48.22
36190;BME280;22232;50.914;13.858;2022-09-01T14:02:11;98304.00;;;20.73;48.17
36190;BME280;22232;50.914;13.858;2022-09-01T14:04:39;98300.84;;;20.90;49.96
36190;BME280;22232;50.914;13.858;2022-09-01T14:07:07;98307.19;;;20.40;47.25
36190;BME280;22232;50.914;13.858;2022-09-01T14:09:34;98298.28;;;19.96;47.54
36190;BME280;22232;50.914;13.858;2022-09-01T14:12:02;98300.38;;;19.44;51.99
36190;BME280;22232;50.914;13.858;2022-09-01T14:14:32;98328.91;;;18.90;64.56
36190;BME280;22232;50.914;13.858;2022-09-01T14:17:21;98318.63;;;18.46;74.23
36190;BME280;22232;50.914;13.858;2022-09-01T14:19:49;98313.47;;;18.34;82.79
36190;BME280;22232;50.914;13.858;2022-09-01T14:22:17;98317.00;;;18.30;83.57
36190;BME280;22232;50.914;13.858;2022-09-01T14:24:45;98323.47;;;18.24;70.85
36190;BME280;22232;50.914;13.858;2022-09-01T14:27:13;98310.22;;;18.12;66.81